Time;durP1;ratioP1;P1;durP2;ratioP2;P2;SDS_P1;SDS_P2;PMS_P1;PMS_P2;Temp;Humidity;BMP_temperature;BMP_pressure;BME280_temperature;BME280_humidity;BME280_pressure;Samples;Min_cycle;Max_cycle;Signal;HPM_P1;HPM_P2
2024/01/04 00:00:28;;;;;;;;;;;;;;;11.19;95.07;97829.78;5119551;27;19911;-80
2024/01/04 00:02:54;;;;;;;;;;;;;;;11.36;94.64;97850.19;5118223;28;19919;-80
2024/01/04 00:05:19;;;;;;;;;;;;;;;11.41;94.32;97841.63;5118458;28;19918;-80
2024/01/04 00:07:45;;;;;;;;;;;;;;;11.42;94.28;97837.72;5119562;28;20394;-80
2024/01/04 00:10:10;;;;;;;;;;;;;;;11.59;94.00;97848.81;5119381;28;20424;-81
2024/01/04 00:12:35;;;;;;;;;;;;;;;11.51;94.08;97846.38;5121288;28;19951;-80
2024/01/04 00:15:03;;;;;;;;;;;;;;;11.52;94.04;97851.47;5122239;28;19916;-81
2024/01/04 00:17:29;;;;;;;;;;;;;;;11.43;93.67;97842.03;5120877;27;19918;-80
2024/01/04 00:19:54;;;;;;;;;;;;;;;11.54;94.23;97857.34;5135146;27;19916;-80
2024/01/04 00:22:19;;;;;;;;;;;;;;;11.69;92.79;97844.53;5127918;27;19959;-80
2024/01/04 00:24:44;;;;;;;;;;;;;;;11.62;92.05;97839.03;5120400;28;19955;-81
2024/01/04 00:27:10;;;;;;;;;;;;;;;11.56;92.32;97837.81;5113758;27;19923;-81
2024/01/04 00:29:35;;;;;;;;;;;;;;;11.50;92.44;97844.81;5139196;27;19918;-81
2024/01/04 00:32:00;;;;;;;;;;;;;;;11.65;92.14;97860.16;5129853;27;19927;-81
2024/01/04 00:34:25;;;;;;;;;;;;;;;11.35;92.01;97846.69;5122811;27;19938;-80
2024/01/04 00:36:51;;;;;;;;;;;;;;;11.26;92.52;97852.47;5136003;27;19911;-80
2024/01/04 00:39:16;;;;;;;;;;;;;;;10.94;93.24;97837.78;5129191;27;20338;-80
2024/01/04 00:41:41;;;;;;;;;;;;;;;10.92;94.39;97851.81;5119751;28;19912;-80
2024/01/04 00:44:06;;;;;;;;;;;;;;;10.90;95.16;97853.34;5121717;28;20354;-81
2024/01/04 00:46:32;;;;;;;;;;;;;;;10.96;95.99;97866.28;5120066;28;19912;-80
2024/01/04 00:48:57;;;;;;;;;;;;;;;10.88;96.66;97866.59;5121126;28;20365;-80
2024/01/04 00:51:22;;;;;;;;;;;;;;;10.67;97.25;97856.25;5120574;28;19973;-81
2024/01/04 00:53:47;;;;;;;;;;;;;;;10.83;96.57;97866.94;5122779;28;19912;-80
2024/01/04 00:56:13;;;;;;;;;;;;;;;10.71;96.75;97857.09;5121275;28;19950;-81
2024/01/04 00:58:38;;;;;;;;;;;;;;;10.75;97.04;97874.28;5133489;27;19974;-81
2024/01/04 01:01:04;;;;;;;;;;;;;;;11.02;97.01;97877.66;5132075;27;19916;-81
2024/01/04 01:03:29;;;;;;;;;;;;;;;11.02;100.00;86815.91;5115287;28;19915;-81
2024/01/04 01:05:55;;;;;;;;;;;;;;;11.12;97.44;97898.81;5121258;28;19915;-81
2024/01/04 01:08:20;;;;;;;;;;;;;;;10.93;97.38;97880.69;5121945;28;20414;-81
2024/01/04 01:10:45;;;;;;;;;;;;;;;10.92;98.17;97894.72;5122942;28;19911;-81
2024/01/04 01:13:10;;;;;;;;;;;;;;;10.81;99.03;97891.09;5121537;28;19955;-81
2024/01/04 01:15:36;;;;;;;;;;;;;;;10.77;99.86;97902.00;5120635;28;19983;-81
2024/01/04 01:18:01;;;;;;;;;;;;;;;10.71;99.68;97893.38;5124104;28;19912;-81
2024/01/04 01:20:26;;;;;;;;;;;;;;;10.84;98.88;97893.09;5121690;28;19912;-81
2024/01/04 01:22:52;;;;;;;;;;;;;;;10.73;98.39;97887.53;5123094;28;19965;-81
2024/01/04 01:25:17;;;;;;;;;;;;;;;10.79;98.62;97896.94;5119670;27;20377;-81
2024/01/04 01:27:42;;;;;;;;;;;;;;;10.93;97.84;97907.22;5138844;27;20361;-81
2024/01/04 01:30:08;;;;;;;;;;;;;;;10.76;98.17;97902.38;5122022;27;19911;-82
2024/01/04 01:32:33;;;;;;;;;;;;;;;10.71;97.78;97898.84;5121775;28;19968;-81
2024/01/04 01:34:58;;;;;;;;;;;;;;;10.89;97.93;97920.88;5123520;28;19937;-81
2024/01/04 01:37:23;;;;;;;;;;;;;;;10.79;98.12;97912.56;5121895;28;19911;-81
2024/01/04 01:39:49;;;;;;;;;;;;;;;10.96;98.39;97923.66;5121329;28;19987;-81
2024/01/04 01:42:15;;;;;;;;;;;;;;;10.98;98.44;97934.97;5124510;28;19912;-81
2024/01/04 01:44:41;;;;;;;;;;;;;;;11.04;98.78;97943.63;5124349;28;19937;-82
2024/01/04 01:47:06;;;;;;;;;;;;;;;11.09;98.85;97954.22;5123671;28;19920;-81
2024/01/04 01:49:31;;;;;;;;;;;;;;;11.28;98.30;97955.94;5122613;28;19918;-81
2024/01/04 01:51:57;;;;;;;;;;;;;;;11.36;97.62;97959.53;5123024;28;20030;-81
2024/01/04 01:54:22;;;;;;;;;;;;;;;11.09;97.50;97946.03;5124229;28;19916;-81
2024/01/04 01:56:47;;;;;;;;;;;;;;;11.02;98.02;97948.69;5124684;27;19967;-81
2024/01/04 01:59:13;;;;;;;;;;;;;;;10.72;99.20;97949.56;5121275;28;19969;-81
2024/01/04 02:01:38;;;;;;;;;;;;;;;10.90;99.31;97970.81;5113669;28;19912;-81
2024/01/04 02:04:03;;;;;;;;;;;;;;;10.87;99.21;97974.31;5122424;28;19973;-81
2024/01/04 02:06:28;;;;;;;;;;;;;;;10.89;99.19;97977.44;5121572;28;20364;-82
2024/01/04 02:08:54;;;;;;;;;;;;;;;10.73;99.61;97972.19;5123077;28;19916;-81
2024/01/04 02:11:19;;;;;;;;;;;;;;;10.82;99.67;97980.88;5124384;27;19912;-82
2024/01/04 02:13:44;;;;;;;;;;;;;;;10.80;99.41;97982.41;5124233;28;19961;-81
2024/01/04 02:16:10;;;;;;;;;;;;;;;10.68;98.65;97983.44;5124001;28;19927;-81
2024/01/04 02:18:35;;;;;;;;;;;;;;;10.58;98.18;97984.91;5123239;28;19912;-81
2024/01/04 02:21:01;;;;;;;;;;;;;;;10.66;97.78;97997.47;5121560;28;19918;-81
2024/01/04 02:23:26;;;;;;;;;;;;;;;10.50;96.47;97988.69;5123745;28;20416;-81
2024/01/04 02:25:51;;;;;;;;;;;;;;;10.65;95.68;97987.69;5123290;28;19916;-81
2024/01/04 02:28:16;;;;;;;;;;;;;;;10.61;94.98;97986.88;5116640;28;19919;-82
2024/01/04 02:30:41;;;;;;;;;;;;;;;10.59;94.35;97993.88;5134356;27;20010;-81
2024/01/04 02:33:07;;;;;;;;;;;;;;;10.52;94.33;97996.50;5120836;27;19912;-81
2024/01/04 02:35:32;;;;;;;;;;;;;;;10.66;94.61;98010.31;5118707;28;19941;-81
2024/01/04 02:37:57;;;;;;;;;;;;;;;10.60;94.36;98020.81;5118429;28;20442;-81
2024/01/04 02:40:22;;;;;;;;;;;;;;;10.68;94.50;98021.66;5117557;28;19918;-81
2024/01/04 02:42:47;;;;;;;;;;;;;;;10.61;94.06;98021.59;5118986;28;20434;-81
2024/01/04 02:45:16;;;;;;;;;;;;;;;10.61;93.99;98016.91;5116984;28;19915;-81
2024/01/04 02:47:42;;;;;;;;;;;;;;;10.61;93.99;98016.91;5118495;28;19964;-81
2024/01/04 02:50:08;;;;;;;;;;;;;;;10.84;93.32;98044.09;5118669;28;19912;-81
2024/01/04 02:52:33;;;;;;;;;;;;;;;10.78;92.97;98031.94;5117405;28;19963;-81
2024/01/04 02:54:58;;;;;;;;;;;;;;;10.59;93.03;98029.38;5116910;28;19920;-81
2024/01/04 02:57:23;;;;;;;;;;;;;;;10.61;92.83;98041.47;5117721;28;20307;-81
2024/01/04 02:59:48;;;;;;;;;;;;;;;10.72;92.97;98058.00;5114565;28;19918;-81
2024/01/04 03:02:15;;;;;;;;;;;;;;;10.72;92.97;98058.00;5113230;28;20399;-81
2024/01/04 03:04:42;;;;;;;;;;;;;;;10.72;92.97;98058.00;5112887;28;19915;-81
2024/01/04 03:07:07;;;;;;;;;;;;;;;-144.99;100.00;67352.69;5113101;28;19919;-81
2024/01/04 03:09:32;;;;;;;;;;;;;;;-144.99;100.00;67352.69;5114570;28;19911;-80
2024/01/04 03:11:57;;;;;;;;;;;;;;;-144.99;100.00;67352.69;5114955;28;19912;-81
2024/01/04 03:14:23;;;;;;;;;;;;;;;-144.99;100.00;67352.69;5113027;28;19965;-81
2024/01/04 03:16:48;;;;;;;;;;;;;;;-144.99;100.00;67352.69;5113326;28;19912;-81
2024/01/04 03:19:13;;;;;;;;;;;;;;;-144.99;100.00;67352.69;5114822;28;19916;-80
2024/01/04 03:21:38;;;;;;;;;;;;;;;-144.99;100.00;67352.69;5112701;28;20064;-81
2024/01/04 03:24:04;;;;;;;;;;;;;;;-144.99;100.00;67352.69;5114401;28;19912;-81
2024/01/04 03:26:29;;;;;;;;;;;;;;;-144.99;100.00;67352.69;5114341;28;19918;-81
2024/01/04 03:28:54;;;;;;;;;;;;;;;-144.99;100.00;67352.69;5112780;28;19912;-81
2024/01/04 03:31:19;;;;;;;;;;;;;;;-144.99;100.00;67352.69;5112815;28;20287;-81
2024/01/04 03:33:44;;;;;;;;;;;;;;;-144.99;100.00;67352.69;5114080;28;20394;-80
2024/01/04 03:36:12;;;;;;;;;;;;;;;-144.99;100.00;67352.69;5114097;28;19926;-81
2024/01/04 03:38:37;;;;;;;;;;;;;;;-144.99;100.00;67352.69;5112212;28;19912;-81
2024/01/04 03:41:02;;;;;;;;;;;;;;;-144.99;100.00;67352.69;5114379;28;19950;-81
2024/01/04 03:43:28;;;;;;;;;;;;;;;-144.99;100.00;67352.69;5114103;28;19918;-81
2024/01/04 03:45:53;;;;;;;;;;;;;;;-144.99;100.00;67352.69;5114844;28;19916;-81
2024/01/04 03:48:18;;;;;;;;;;;;;;;-144.99;100.00;67352.69;5113525;28;19916;-81
2024/01/04 03:50:43;;;;;;;;;;;;;;;-144.99;100.00;67352.69;5099024;28;19912;-81
2024/01/04 03:53:08;;;;;;;;;;;;;;;-144.99;100.00;67352.69;5112574;28;20002;-81
2024/01/04 03:55:34;;;;;;;;;;;;;;;-144.99;100.00;67352.69;5112787;28;19923;-81
2024/01/04 03:57:59;;;;;;;;;;;;;;;-144.99;100.00;67352.69;5112925;28;19969;-81
2024/01/04 04:00:24;;;;;;;;;;;;;;;-144.99;100.00;67352.69;5113772;28;19912;-80
2024/01/04 04:02:51;;;;;;;;;;;;;;;-144.99;100.00;67352.69;5114769;28;19935;-81
2024/01/04 04:05:16;;;;;;;;;;;;;;;-144.99;100.00;67352.69;5117961;28;20011;-81
2024/01/04 04:07:41;;;;;;;;;;;;;;;-144.99;100.00;67352.69;5119595;28;19957;-81
2024/01/04 04:10:08;;;;;;;;;;;;;;;-144.99;100.00;67352.69;5119011;28;19911;-81
2024/01/04 04:12:33;;;;;;;;;;;;;;;-144.99;100.00;67352.69;5118193;28;20332;-81
2024/01/04 04:14:58;;;;;;;;;;;;;;;-144.99;100.00;67352.69;5117763;28;19988;-81
2024/01/04 04:17:24;;;;;;;;;;;;;;;-144.99;100.00;67352.69;5119852;28;20373;-81
2024/01/04 04:19:50;;;;;;;;;;;;;;;-144.99;100.00;67352.69;5118896;28;20380;-81
2024/01/04 04:22:15;;;;;;;;;;;;;;;10.72;92.97;98058.00;5118039;28;19951;-81
2024/01/04 04:24:41;;;;;;;;;;;;;;;10.44;87.11;98140.31;5120057;28;19947;-81
2024/01/04 04:27:06;;;;;;;;;;;;;;;-144.99;100.00;67352.69;5119931;28;19984;-81
2024/01/04 04:29:31;;;;;;;;;;;;;;;-144.99;100.00;67352.69;5119252;28;19912;-81
2024/01/04 04:31:56;;;;;;;;;;;;;;;-144.99;100.00;67352.69;5120893;28;20006;-81
2024/01/04 04:34:22;;;;;;;;;;;;;;;-144.99;100.00;67352.69;5120688;28;19916;-81
2024/01/04 04:36:47;;;;;;;;;;;;;;;10.44;87.11;98140.31;5120396;28;19983;-81
2024/01/04 04:39:13;;;;;;;;;;;;;;;10.04;87.25;98171.59;5118543;28;19994;-80
2024/01/04 04:41:39;;;;;;;;;;;;;;;10.11;87.08;98185.34;5120425;28;19912;-80
2024/01/04 04:44:04;;;;;;;;;;;;;;;9.80;86.77;98171.94;5118904;28;19920;-80
2024/01/04 04:46:29;;;;;;;;;;;;;;;9.72;86.17;98176.47;5120553;28;19912;-81
2024/01/04 04:48:56;;;;;;;;;;;;;;;9.97;85.58;98189.75;5120793;27;19919;-80
2024/01/04 04:51:25;;;;;;;;;;;;;;;10.02;85.15;98190.25;5112049;28;20369;-81
2024/01/04 04:53:50;;;;;;;;;;;;;;;10.06;84.70;98188.38;5121189;28;19912;-81
2024/01/04 04:56:15;;;;;;;;;;;;;;;9.93;83.96;98192.44;5120490;27;19934;-80
2024/01/04 04:58:40;;;;;;;;;;;;;;;9.91;83.89;98194.75;5119882;28;19920;-80
2024/01/04 05:01:06;;;;;;;;;;;;;;;9.92;83.94;98211.88;5120639;28;19918;-80
2024/01/04 05:03:32;;;;;;;;;;;;;;;9.83;83.72;98218.34;5119673;28;19911;-80
2024/01/04 05:05:57;;;;;;;;;;;;;;;9.83;83.86;98206.66;5120164;28;19912;-80
2024/01/04 05:08:23;;;;;;;;;;;;;;;9.84;84.11;98219.94;5119786;28;19912;-80
2024/01/04 05:10:48;;;;;;;;;;;;;;;9.88;84.16;98230.13;5120870;28;19912;-80
2024/01/04 05:13:13;;;;;;;;;;;;;;;10.10;84.44;98257.44;5121628;28;19922;-80
2024/01/04 05:15:38;;;;;;;;;;;;;;;9.84;84.91;98240.97;5121818;28;19916;-80
2024/01/04 05:18:04;;;;;;;;;;;;;;;9.73;85.91;98248.16;5121331;28;19920;-80
2024/01/04 05:20:29;;;;;;;;;;;;;;;9.45;86.53;98237.47;5122053;28;19912;-81
2024/01/04 05:22:54;;;;;;;;;;;;;;;9.22;87.84;98248.25;5122040;28;19920;-80
2024/01/04 05:25:19;;;;;;;;;;;;;;;9.12;89.30;98265.19;5120745;28;19912;-80
2024/01/04 05:27:45;;;;;;;;;;;;;;;8.94;90.38;98262.81;5122558;28;19919;-80
2024/01/04 05:30:10;;;;;;;;;;;;;;;8.93;91.65;98277.56;5120885;28;19934;-80
2024/01/04 05:32:35;;;;;;;;;;;;;;;8.68;92.15;98272.66;5121942;28;20300;-80
2024/01/04 05:35:01;;;;;;;;;;;;;;;8.83;92.81;98278.13;5122194;28;19916;-81
2024/01/04 05:37:26;;;;;;;;;;;;;;;8.72;93.47;98279.81;5122365;28;19912;-81
2024/01/04 05:39:51;;;;;;;;;;;;;;;8.57;93.79;98291.47;5123911;28;19919;-80
2024/01/04 05:42:16;;;;;;;;;;;;;;;8.57;93.79;98291.47;5114139;28;19918;-80
2024/01/04 05:44:42;;;;;;;;;;;;;;;-144.99;100.00;67352.69;5124251;28;19912;-80
2024/01/04 05:47:07;;;;;;;;;;;;;;;-144.99;100.00;67352.69;5123197;28;20244;-80
2024/01/04 05:49:32;;;;;;;;;;;;;;;-144.99;100.00;67352.69;5124176;28;19950;-80
2024/01/04 05:51:57;;;;;;;;;;;;;;;-144.99;100.00;67352.69;5122667;28;19912;-80
2024/01/04 05:54:23;;;;;;;;;;;;;;;-144.99;100.00;67352.69;5123893;28;20326;-80
2024/01/04 05:56:48;;;;;;;;;;;;;;;-144.99;100.00;67352.69;5124401;28;20303;-80
2024/01/04 05:59:13;;;;;;;;;;;;;;;-144.99;100.00;67352.69;5120185;28;19915;-80
2024/01/04 06:01:39;;;;;;;;;;;;;;;-144.99;100.00;67352.69;5114840;28;20300;-80
2024/01/04 06:04:05;;;;;;;;;;;;;;;-144.99;100.00;67352.69;5114611;28;19912;-80
2024/01/04 06:06:30;;;;;;;;;;;;;;;-144.99;100.00;67352.69;5114759;28;19912;-80
2024/01/04 06:08:55;;;;;;;;;;;;;;;-144.99;100.00;67352.69;5114718;28;19919;-80
2024/01/04 06:11:20;;;;;;;;;;;;;;;-144.99;100.00;67352.69;5116739;28;20273;-81
2024/01/04 06:13:46;;;;;;;;;;;;;;;-144.99;100.00;67352.69;5114732;28;19911;-80
2024/01/04 06:16:11;;;;;;;;;;;;;;;-144.99;100.00;67352.69;5114338;28;19916;-80
2024/01/04 06:18:36;;;;;;;;;;;;;;;-144.99;100.00;67352.69;5113393;28;19941;-80
2024/01/04 06:21:02;;;;;;;;;;;;;;;-144.99;100.00;67352.69;5114373;28;19911;-80
2024/01/04 06:23:27;;;;;;;;;;;;;;;-144.99;100.00;67352.69;5115843;27;19916;-80
2024/01/04 06:25:53;;;;;;;;;;;;;;;8.57;100.00;98291.47;5115995;28;19957;-80
2024/01/04 06:28:18;;;;;;;;;;;;;;;-144.99;100.00;67352.69;5116138;28;19919;-80
2024/01/04 06:30:43;;;;;;;;;;;;;;;-144.99;100.00;67352.69;5115784;28;20014;-80
2024/01/04 06:33:09;;;;;;;;;;;;;;;-144.99;100.00;67352.69;5107119;28;19922;-80
2024/01/04 06:35:34;;;;;;;;;;;;;;;-144.99;100.00;67352.69;5116022;28;19927;-80
2024/01/04 06:37:59;;;;;;;;;;;;;;;-144.99;100.00;67352.69;5116463;28;19911;-80
2024/01/04 06:40:24;;;;;;;;;;;;;;;-144.99;100.00;67352.69;5115697;28;19919;-80
2024/01/04 06:42:55;;;;;;;;;;;;;;;-144.99;100.00;67352.69;5116019;28;19919;-80
2024/01/04 06:45:20;;;;;;;;;;;;;;;-144.99;100.00;67352.69;5116668;28;19918;-80
2024/01/04 06:47:57;;;;;;;;;;;;;;;-144.99;100.00;67352.69;5114473;28;20339;-80
2024/01/04 06:50:23;;;;;;;;;;;;;;;-144.99;100.00;67352.69;5114919;28;20369;-80
2024/01/04 06:52:49;;;;;;;;;;;;;;;-144.99;100.00;67352.69;5115916;28;19919;-80
2024/01/04 06:55:15;;;;;;;;;;;;;;;-144.99;100.00;67352.69;5114552;28;19923;-80
2024/01/04 06:57:40;;;;;;;;;;;;;;;-144.99;100.00;67352.69;5114353;28;20398;-80
2024/01/04 07:00:10;;;;;;;;;;;;;;;-144.99;100.00;67352.69;5115349;28;19915;-80
2024/01/04 07:02:36;;;;;;;;;;;;;;;-144.99;100.00;67352.69;5116324;28;19951;-80
2024/01/04 07:05:03;;;;;;;;;;;;;;;-144.99;100.00;67352.69;5114543;28;20384;-80
2024/01/04 07:07:29;;;;;;;;;;;;;;;-144.99;100.00;67352.69;5116240;28;19950;-80
2024/01/04 07:09:54;;;;;;;;;;;;;;;-144.99;100.00;67352.69;5114990;28;19916;-80
2024/01/04 07:12:20;;;;;;;;;;;;;;;-144.99;100.00;67352.69;5116217;28;19911;-80
2024/01/04 07:14:45;;;;;;;;;;;;;;;-144.99;100.00;67352.69;5115861;28;20006;-79
2024/01/04 07:17:10;;;;;;;;;;;;;;;-144.99;100.00;67352.69;5116387;28;20015;-80
2024/01/04 07:19:35;;;;;;;;;;;;;;;-144.99;100.00;67352.69;5114668;28;20002;-80
2024/01/04 07:22:00;;;;;;;;;;;;;;;-144.99;100.00;67352.69;5116534;28;19911;-80
2024/01/04 07:24:26;;;;;;;;;;;;;;;-144.99;100.00;67352.69;5115027;28;19969;-80
2024/01/04 07:26:51;;;;;;;;;;;;;;;-144.99;100.00;67352.69;5107400;28;19920;-80
2024/01/04 07:29:16;;;;;;;;;;;;;;;-144.99;100.00;67352.69;5115969;28;19915;-80
2024/01/04 07:31:42;;;;;;;;;;;;;;;-144.99;100.00;67352.69;5116181;28;19912;-80
2024/01/04 07:34:07;;;;;;;;;;;;;;;-144.99;100.00;67352.69;5116644;28;19912;-80
2024/01/04 07:36:34;;;;;;;;;;;;;;;-144.99;100.00;67352.69;5115440;28;19939;-80
2024/01/04 07:38:59;;;;;;;;;;;;;;;-144.99;100.00;67352.69;5118522;28;19916;-80
2024/01/04 07:41:24;;;;;;;;;;;;;;;-144.99;100.00;67352.69;5120455;28;19911;-79
2024/01/04 07:43:50;;;;;;;;;;;;;;;-144.99;100.00;67352.69;5121296;28;20380;-79
2024/01/04 07:46:15;;;;;;;;;;;;;;;-144.99;100.00;67352.69;5121386;28;19912;-80
2024/01/04 07:48:40;;;;;;;;;;;;;;;-144.99;100.00;67352.69;5121710;28;20388;-79
2024/01/04 07:51:05;;;;;;;;;;;;;;;-144.99;100.00;67352.69;5121217;28;19918;-80
2024/01/04 07:53:31;;;;;;;;;;;;;;;-144.99;100.00;67352.69;5120435;28;19965;-79
2024/01/04 07:55:57;;;;;;;;;;;;;;;-144.99;100.00;67352.69;5122117;28;20100;-79
2024/01/04 07:58:22;;;;;;;;;;;;;;;-144.99;100.00;67352.69;5118473;28;19912;-80
2024/01/04 08:00:47;;;;;;;;;;;;;;;-144.99;100.00;67352.69;5120731;28;19918;-80
2024/01/04 08:03:12;;;;;;;;;;;;;;;-144.99;100.00;67352.69;5120814;28;19927;-79
2024/01/04 08:05:38;;;;;;;;;;;;;;;-144.99;100.00;67352.69;5122855;28;19957;-80
2024/01/04 08:08:03;;;;;;;;;;;;;;;-144.99;100.00;67352.69;5122036;28;19919;-80
2024/01/04 08:10:30;;;;;;;;;;;;;;;-144.99;100.00;67352.69;5122731;28;20007;-80
2024/01/04 08:12:56;;;;;;;;;;;;;;;-144.99;100.00;67352.69;5122766;28;20016;-79
2024/01/04 08:15:21;;;;;;;;;;;;;;;-144.99;100.00;67352.69;5111249;28;19916;-79
2024/01/04 08:17:46;;;;;;;;;;;;;;;-144.99;100.00;67352.69;5122046;28;19934;-80
2024/01/04 08:20:13;;;;;;;;;;;;;;;-144.99;100.00;67352.69;5122515;28;19918;-80
2024/01/04 08:22:39;;;;;;;;;;;;;;;-144.99;100.00;67352.69;5121524;28;19919;-79
2024/01/04 08:25:04;;;;;;;;;;;;;;;-144.99;100.00;67352.69;5123630;28;20261;-80
2024/01/04 08:27:30;;;;;;;;;;;;;;;-144.99;100.00;67352.69;5122306;27;19937;-80
2024/01/04 08:29:55;;;;;;;;;;;;;;;-144.99;100.00;67352.69;5121099;28;19912;-79
2024/01/04 08:32:20;;;;;;;;;;;;;;;-144.99;100.00;67352.69;5121527;28;19998;-80
2024/01/04 08:34:45;;;;;;;;;;;;;;;-144.99;100.00;67352.69;5123590;28;19939;-80
2024/01/04 08:37:13;;;;;;;;;;;;;;;-144.99;100.00;67352.69;5122292;28;19919;-79
2024/01/04 08:39:38;;;;;;;;;;;;;;;-144.99;100.00;67352.69;5124411;28;19912;-80
2024/01/04 08:42:04;;;;;;;;;;;;;;;-144.99;100.00;67352.69;5123556;28;19936;-80
2024/01/04 08:44:29;;;;;;;;;;;;;;;-144.99;100.00;67352.69;5122283;28;19912;-79
2024/01/04 08:46:54;;;;;;;;;;;;;;;-144.99;100.00;67352.69;5116826;27;19916;-80
2024/01/04 08:49:20;;;;;;;;;;;;;;;-144.99;100.00;67352.69;5116995;27;19912;-79
2024/01/04 08:51:45;;;;;;;;;;;;;;;-144.99;100.00;67352.69;5122828;28;19912;-79
2024/01/04 08:54:10;;;;;;;;;;;;;;;-144.99;100.00;67352.69;5123642;27;19926;-80
2024/01/04 08:56:36;;;;;;;;;;;;;;;-144.99;100.00;67352.69;5122442;27;19944;-80
2024/01/04 08:59:02;;;;;;;;;;;;;;;-144.99;100.00;67352.69;5125579;27;19919;-80
2024/01/04 09:01:27;;;;;;;;;;;;;;;-144.99;100.00;67352.69;5125190;27;20007;-79
2024/01/04 09:03:53;;;;;;;;;;;;;;;-144.99;100.00;67352.69;5124145;28;19911;-80
2024/01/04 09:06:18;;;;;;;;;;;;;;;-144.99;100.00;67352.69;5126836;27;19957;-80
2024/01/04 09:08:43;;;;;;;;;;;;;;;-144.99;100.00;67352.69;5124317;27;19916;-81
2024/01/04 09:11:09;;;;;;;;;;;;;;;-144.99;100.00;67352.69;5123787;28;19967;-80
2024/01/04 09:13:34;;;;;;;;;;;;;;;-144.99;100.00;67352.69;5125479;28;19915;-80
2024/01/04 09:16:00;;;;;;;;;;;;;;;-144.99;100.00;67352.69;5124058;28;19916;-80
2024/01/04 09:18:25;;;;;;;;;;;;;;;-144.99;100.00;67352.69;5120247;28;20293;-80
2024/01/04 09:20:50;;;;;;;;;;;;;;;-144.99;100.00;67352.69;5120032;28;19919;-81
2024/01/04 09:23:15;;;;;;;;;;;;;;;-144.99;100.00;67352.69;5121552;28;19920;-81
2024/01/04 09:25:40;;;;;;;;;;;;;;;-144.99;100.00;67352.69;5119926;28;19918;-80
2024/01/04 09:28:06;;;;;;;;;;;;;;;-144.99;100.00;67352.69;5118735;28;19912;-81
2024/01/04 09:30:31;;;;;;;;;;;;;;;-144.99;100.00;67352.69;5119984;28;19991;-81
2024/01/04 09:32:57;;;;;;;;;;;;;;;-144.99;100.00;67352.69;5121363;27;19919;-81
2024/01/04 09:35:23;;;;;;;;;;;;;;;-144.99;100.00;67352.69;5120938;28;19971;-80
2024/01/04 09:37:51;;;;;;;;;;;;;;;-144.99;100.00;67352.69;5120174;28;19912;-80
2024/01/04 09:40:17;;;;;;;;;;;;;;;-144.99;100.00;67352.69;5120225;28;19920;-80
2024/01/04 09:42:43;;;;;;;;;;;;;;;-144.99;100.00;67352.69;5120988;28;19919;-80
2024/01/04 09:45:13;;;;;;;;;;;;;;;-144.99;100.00;67352.69;5120068;28;19912;-80
2024/01/04 09:47:42;;;;;;;;;;;;;;;-144.99;100.00;67352.69;5121349;27;20283;-80
2024/01/04 09:50:10;;;;;;;;;;;;;;;-144.99;100.00;67352.69;5118677;28;19912;-79
2024/01/04 09:52:36;;;;;;;;;;;;;;;-144.99;100.00;67352.69;5119897;28;20399;-81
2024/01/04 09:55:03;;;;;;;;;;;;;;;-144.99;100.00;67352.69;5110579;28;19919;-81
2024/01/04 09:57:28;;;;;;;;;;;;;;;-144.99;100.00;67352.69;5110707;28;19918;-82
2024/01/04 09:59:53;;;;;;;;;;;;;;;-144.99;100.00;67352.69;5111168;28;20384;-81
2024/01/04 10:02:20;;;;;;;;;;;;;;;-144.99;100.00;67352.69;5116960;28;19912;-80
2024/01/04 10:04:46;;;;;;;;;;;;;;;-144.99;100.00;67352.69;5118321;28;20698;-80
2024/01/04 10:07:15;;;;;;;;;;;;;;;-144.99;100.00;67352.69;5121144;28;19912;-80
2024/01/04 10:09:53;;;;;;;;;;;;;;;-144.99;100.00;67352.69;5118822;28;19911;-79
2024/01/04 10:12:18;;;;;;;;;;;;;;;-144.99;100.00;67352.69;5119711;28;19912;-82
2024/01/04 10:14:44;;;;;;;;;;;;;;;-144.99;100.00;67352.69;5118149;28;19922;-81
2024/01/04 10:17:11;;;;;;;;;;;;;;;-144.99;100.00;67352.69;5110526;28;20460;-81
2024/01/04 10:19:36;;;;;;;;;;;;;;;-144.99;100.00;67352.69;5118874;28;19935;-81
2024/01/04 10:22:02;;;;;;;;;;;;;;;-144.99;100.00;67352.69;5109678;28;19911;-81
2024/01/04 10:24:29;;;;;;;;;;;;;;;-70.23;100.00;67352.69;5115078;28;19973;-80
2024/01/04 10:26:56;;;;;;;;;;;;;;;-144.99;100.00;67352.69;5114140;28;19922;-81
2024/01/04 10:29:23;;;;;;;;;;;;;;;-144.99;100.00;67352.69;5110974;28;20292;-80
2024/01/04 10:31:56;;;;;;;;;;;;;;;-144.99;100.00;67352.69;5117898;28;20330;-81
2024/01/04 10:34:22;;;;;;;;;;;;;;;-144.99;100.00;67352.69;5107833;28;19965;-81
2024/01/04 10:36:47;;;;;;;;;;;;;;;-144.99;100.00;67352.69;5114672;28;19920;-81
2024/01/04 10:39:17;;;;;;;;;;;;;;;-144.99;100.00;67352.69;5116932;28;19912;-80
2024/01/04 10:41:44;;;;;;;;;;;;;;;-144.99;100.00;67352.69;5112669;28;19934;-80
2024/01/04 10:44:09;;;;;;;;;;;;;;;-144.99;100.00;67352.69;5115834;28;19998;-81
2024/01/04 10:46:34;;;;;;;;;;;;;;;-144.99;100.00;67352.69;5118740;28;20008;-80
2024/01/04 10:49:03;;;;;;;;;;;;;;;-144.99;100.00;67352.69;5117067;28;19916;-80
2024/01/04 10:51:32;;;;;;;;;;;;;;;-144.99;100.00;67352.69;5118786;28;19916;-80
2024/01/04 10:54:00;;;;;;;;;;;;;;;-144.99;100.00;67352.69;5108417;28;19912;-79
2024/01/04 10:56:26;;;;;;;;;;;;;;;-144.99;100.00;67352.69;5118243;28;19920;-80
2024/01/04 10:58:51;;;;;;;;;;;;;;;-144.99;100.00;67352.69;5116879;28;20337;-81
2024/01/04 11:01:18;;;;;;;;;;;;;;;-144.99;100.00;67352.69;5109884;28;19918;-83
2024/01/04 11:03:43;;;;;;;;;;;;;;;-144.99;100.00;67352.69;5112004;28;19935;-84
2024/01/04 11:06:09;;;;;;;;;;;;;;;-144.99;100.00;67352.69;5111885;28;20373;-83
2024/01/04 11:08:35;;;;;;;;;;;;;;;-144.99;100.00;67352.69;5107582;28;19916;-84
2024/01/04 11:11:01;;;;;;;;;;;;;;;-144.99;100.00;67352.69;5102392;28;19911;-79
2024/01/04 11:13:26;;;;;;;;;;;;;;;-144.99;100.00;67352.69;5119725;28;19911;-78
2024/01/04 11:15:53;;;;;;;;;;;;;;;-144.99;100.00;67352.69;5119946;28;19915;-79
2024/01/04 11:18:18;;;;;;;;;;;;;;;-144.99;100.00;67352.69;5119011;28;19912;-79
2024/01/04 11:20:49;;;;;;;;;;;;;;;-144.99;100.00;67352.69;5119179;28;19919;-79
2024/01/04 11:23:23;;;;;;;;;;;;;;;-144.99;100.00;67352.69;5117473;28;19947;-78
2024/01/04 11:25:51;;;;;;;;;;;;;;;-144.99;100.00;67352.69;5117632;28;19911;-79
2024/01/04 11:28:17;;;;;;;;;;;;;;;-144.99;100.00;67352.69;5117986;28;20388;-78
2024/01/04 11:30:42;;;;;;;;;;;;;;;-144.99;100.00;67352.69;5118229;28;19911;-79
2024/01/04 11:33:07;;;;;;;;;;;;;;;-144.99;100.00;67352.69;5118847;28;19912;-78
2024/01/04 11:35:34;;;;;;;;;;;;;;;-144.99;100.00;67352.69;5118060;28;19915;-79
2024/01/04 11:38:04;;;;;;;;;;;;;;;-144.99;100.00;67352.69;5118916;28;19912;-79
2024/01/04 11:40:29;;;;;;;;;;;;;;;-144.99;100.00;67352.69;5119089;27;19912;-79
2024/01/04 11:42:55;;;;;;;;;;;;;;;-144.99;100.00;67352.69;5117516;28;20045;-79
2024/01/04 11:45:22;;;;;;;;;;;;;;;-144.99;100.00;67352.69;5109679;28;19918;-79
2024/01/04 11:47:49;;;;;;;;;;;;;;;-144.99;100.00;67352.69;5119131;28;19912;-78
2024/01/04 11:50:17;;;;;;;;;;;;;;;-144.99;100.00;67352.69;5115071;28;19912;-78
2024/01/04 11:52:42;;;;;;;;;;;;;;;-144.99;100.00;67352.69;5107032;28;20002;-80
2024/01/04 11:55:08;;;;;;;;;;;;;;;-144.99;100.00;67352.69;5109192;28;19994;-80
2024/01/04 11:57:34;;;;;;;;;;;;;;;-144.99;100.00;67352.69;5109937;28;19912;-80
2024/01/04 11:59:59;;;;;;;;;;;;;;;-144.99;100.00;67352.69;5111745;28;20376;-81
2024/01/04 12:02:25;;;;;;;;;;;;;;;-144.99;100.00;67352.69;5110104;28;19912;-80
2024/01/04 12:04:50;;;;;;;;;;;;;;;-144.99;100.00;67352.69;5118735;28;19921;-79
2024/01/04 12:07:15;;;;;;;;;;;;;;;-144.99;100.00;67352.69;5120054;28;19915;-81
2024/01/04 12:09:41;;;;;;;;;;;;;;;-144.99;100.00;67352.69;5126833;27;20006;-80
2024/01/04 12:12:08;;;;;;;;;;;;;;;-144.99;100.00;67352.69;5129164;27;19964;-80
2024/01/04 12:14:36;;;;;;;;;;;;;;;-144.99;100.00;67352.69;5131027;27;19956;-80
2024/01/04 12:17:02;;;;;;;;;;;;;;;-144.99;100.00;67352.69;5129107;27;20296;-80
2024/01/04 12:19:27;;;;;;;;;;;;;;;-144.99;100.00;67352.69;5119929;28;19915;-80